Time,TemperatureF,DewpointF,PressureIn,WindDirection,WindDirectionDegrees,WindSpeedMPH,WindSpeedGustMPH,Humidity,HourlyPrecipIn,Conditions,Clouds,dailyrainin,SoftwareType,DateUTC
2013-03-06 00:12:00,54.3,33.4,30.07,NNW,337,3.7,-999.0,45,-99.99,,,0.00,Acu-Link.com,2013-03-06 06:12:00,
2013-03-06 00:27:00,53.2,31.3,30.09,West,270,5.8,-999.0,43,-99.99,,,0.00,Acu-Link.com,2013-03-06 06:27:00,
2013-03-06 00:42:00,52.7,29.7,30.09,NW,315,4.2,-999.0,41,-99.99,,,0.00,Acu-Link.com,2013-03-06 06:42:00,
2013-03-06 00:57:00,52.2,29.8,30.10,NNW,337,2.2,-999.0,42,-99.99,,,0.00,Acu-Link.com,2013-03-06 06:57:00,
2013-03-06 01:12:00,51.4,28.5,30.09,WNW,292,3.7,-999.0,41,-99.99,,,0.00,Acu-Link.com,2013-03-06 07:12:00,
2013-03-06 01:28:00,51.1,27.6,30.10,West,270,3.2,-999.0,40,-99.99,,,0.00,Acu-Link.com,2013-03-06 07:28:00,
2013-03-06 01:43:00,50.5,27.1,30.10,NW,315,4.2,-999.0,40,-99.99,,,0.00,Acu-Link.com,2013-03-06 07:43:00,
2013-03-06 01:58:00,50.2,26.8,30.10,North,0,3.7,-999.0,40,-99.99,,,0.00,Acu-Link.com,2013-03-06 07:58:00,
2013-03-06 02:13:00,49.5,26.8,30.10,NW,315,3.7,-999.0,41,-99.99,,,0.00,Acu-Link.com,2013-03-06 08:13:00,
2013-03-06 02:29:00,48.9,26.2,30.10,WNW,292,1.7,-999.0,41,-99.99,,,0.00,Acu-Link.com,2013-03-06 08:29:00,
2013-03-06 02:44:00,48.4,25.8,30.10,NW,315,3.7,-999.0,41,-99.99,,,0.00,Acu-Link.com,2013-03-06 08:44:00,
2013-03-06 02:59:00,48.0,26.0,30.10,West,270,1.7,-999.0,42,-99.99,,,0.00,Acu-Link.com,2013-03-06 08:59:00,
2013-03-06 03:23:00,47.7,25.7,30.10,NW,315,1.7,-999.0,42,-99.99,,,0.00,Acu-Link.com,2013-03-06 09:23:00,
2013-03-06 03:38:00,46.6,26.4,30.11,West,270,1.7,-999.0,45,-99.99,,,0.00,Acu-Link.com,2013-03-06 09:38:00,
2013-03-06 03:53:00,45.9,26.3,30.12,NW,315,4.7,-999.0,46,-99.99,,,0.00,Acu-Link.com,2013-03-06 09:53:00,
2013-03-06 04:08:00,45.5,26.5,30.13,WNW,292,1.7,-999.0,47,-99.99,,,0.00,Acu-Link.com,2013-03-06 10:08:00,
2013-03-06 04:24:00,44.8,26.8,30.13,WSW,247,1.1,-999.0,49,-99.99,,,0.00,Acu-Link.com,2013-03-06 10:24:00,
2013-03-06 04:39:00,43.9,27.4,30.15,West,270,0.0,-999.0,52,-99.99,,,0.00,Acu-Link.com,2013-03-06 10:39:00,
2013-03-06 04:54:00,43.2,30.3,30.15,WSW,247,0.0,-999.0,60,-99.99,,,0.00,Acu-Link.com,2013-03-06 10:54:00,
2013-03-06 05:09:00,41.9,26.9,30.16,WSW,247,2.7,-999.0,55,-99.99,,,0.00,Acu-Link.com,2013-03-06 11:09:00,
2013-03-06 05:24:00,42.1,26.7,30.17,WNW,292,2.2,-999.0,54,-99.99,,,0.00,Acu-Link.com,2013-03-06 11:24:00,
2013-03-06 05:40:00,41.9,26.9,30.17,NW,315,0.0,-999.0,55,-99.99,,,0.00,Acu-Link.com,2013-03-06 11:40:00,
2013-03-06 05:55:00,41.7,26.3,30.18,WSW,247,0.0,-999.0,54,-99.99,,,0.00,Acu-Link.com,2013-03-06 11:55:00,
2013-03-06 06:10:00,41.0,27.8,30.18,NNE,22,0.0,-999.0,59,-99.99,,,0.00,Acu-Link.com,2013-03-06 12:10:00,
2013-03-06 06:25:00,40.1,30.0,30.18,SE,135,0.0,-999.0,67,-99.99,,,0.00,Acu-Link.com,2013-03-06 12:25:00,
2013-03-06 06:40:00,39.4,30.1,30.19,SSW,202,0.0,-999.0,69,-99.99,,,0.00,Acu-Link.com,2013-03-06 12:40:00,
2013-03-06 06:56:00,39.2,30.6,30.20,SSE,157,1.1,-999.0,71,-99.99,,,0.00,Acu-Link.com,2013-03-06 12:56:00,
2013-03-06 07:11:00,39.7,30.4,30.20,SSE,157,0.0,-999.0,69,-99.99,,,0.00,Acu-Link.com,2013-03-06 13:11:00,
2013-03-06 07:26:00,40.5,28.9,30.20,West,270,1.1,-999.0,63,-99.99,,,0.00,Acu-Link.com,2013-03-06 13:26:00,
2013-03-06 07:42:00,44.1,27.1,30.21,NNW,337,2.2,-999.0,51,-99.99,,,0.00,Acu-Link.com,2013-03-06 13:42:00,
2013-03-06 07:57:00,45.5,25.9,30.21,WNW,292,2.7,-999.0,46,-99.99,,,0.00,Acu-Link.com,2013-03-06 13:57:00,
2013-03-06 08:12:00,46.4,26.2,30.22,West,270,3.7,-999.0,45,-99.99,,,0.00,Acu-Link.com,2013-03-06 14:12:00,
2013-03-06 08:27:00,47.1,26.3,30.22,NNW,337,4.2,-999.0,44,-99.99,,,0.00,Acu-Link.com,2013-03-06 14:27:00,
2013-03-06 08:42:00,47.8,25.8,30.22,West,270,6.3,-999.0,42,-99.99,,,0.00,Acu-Link.com,2013-03-06 14:42:00,
2013-03-06 08:58:00,48.6,26.0,30.22,WNW,292,4.7,-999.0,41,-99.99,,,0.00,Acu-Link.com,2013-03-06 14:58:00,
2013-03-06 09:13:00,48.9,25.7,30.21,NW,315,4.7,-999.0,40,-99.99,,,0.00,Acu-Link.com,2013-03-06 15:13:00,
2013-03-06 09:28:00,50.2,26.8,30.21,NNW,337,2.7,-999.0,40,-99.99,,,0.00,Acu-Link.com,2013-03-06 15:28:00,
2013-03-06 09:59:00,51.8,25.7,30.21,NW,315,1.1,-999.0,36,-99.99,,,0.00,Acu-Link.com,2013-03-06 15:59:00,
2013-03-06 10:14:00,52.2,26.7,30.21,SW,225,4.2,-999.0,37,-99.99,,,0.00,Acu-Link.com,2013-03-06 16:14:00,
2013-03-06 10:29:00,52.7,25.8,30.20,West,270,6.8,-999.0,35,-99.99,,,0.00,Acu-Link.com,2013-03-06 16:29:00,
2013-03-06 10:44:00,53.1,26.9,30.21,West,270,3.2,-999.0,36,-99.99,,,0.00,Acu-Link.com,2013-03-06 16:44:00,
2013-03-06 11:00:00,54.1,26.4,30.20,NW,315,5.3,-999.0,34,-99.99,,,0.00,Acu-Link.com,2013-03-06 17:00:00,
2013-03-06 11:15:00,54.5,27.4,30.19,North,0,3.2,-999.0,35,-99.99,,,0.00,Acu-Link.com,2013-03-06 17:15:00,
2013-03-06 11:30:00,56.1,27.4,30.19,West,270,4.2,-999.0,33,-99.99,,,0.00,Acu-Link.com,2013-03-06 17:30:00,
2013-03-06 11:45:00,56.1,27.4,30.18,WNW,292,6.3,-999.0,33,-99.99,,,0.00,Acu-Link.com,2013-03-06 17:45:00,
2013-03-06 12:01:00,57.6,27.2,30.17,North,0,2.2,-999.0,31,-99.99,,,0.00,Acu-Link.com,2013-03-06 18:01:00,
2013-03-06 12:17:00,58.8,26.6,30.16,WNW,292,4.7,-999.0,29,-99.99,,,0.00,Acu-Link.com,2013-03-06 18:17:00,
2013-03-06 12:32:00,59.4,28.0,30.15,WSW,247,2.7,-999.0,30,-99.99,,,0.00,Acu-Link.com,2013-03-06 18:32:00,
2013-03-06 12:47:00,60.1,26.9,30.14,SSE,157,2.2,-999.0,28,-99.99,,,0.00,Acu-Link.com,2013-03-06 18:47:00,
2013-03-06 13:02:00,61.0,26.8,30.13,SW,225,2.7,-999.0,27,-99.99,,,0.00,Acu-Link.com,2013-03-06 19:02:00,
2013-03-06 13:18:00,61.7,26.5,30.12,NW,315,3.7,-999.0,26,-99.99,,,0.00,Acu-Link.com,2013-03-06 19:18:00,
2013-03-06 13:33:00,62.6,27.2,30.11,WNW,292,3.2,-999.0,26,-99.99,,,0.00,Acu-Link.com,2013-03-06 19:33:00,
2013-03-06 13:48:00,62.1,25.9,30.10,West,270,3.7,-999.0,25,-99.99,,,0.00,Acu-Link.com,2013-03-06 19:48:00,
2013-03-06 14:03:00,63.0,26.6,30.10,West,270,2.7,-999.0,25,-99.99,,,0.00,Acu-Link.com,2013-03-06 20:03:00,
2013-03-06 14:18:00,62.6,25.3,30.08,NNW,337,3.2,-999.0,24,-99.99,,,0.00,Acu-Link.com,2013-03-06 20:18:00,
2013-03-06 14:34:00,63.3,23.8,30.08,WNW,292,3.7,-999.0,22,-99.99,,,0.00,Acu-Link.com,2013-03-06 20:34:00,
2013-03-06 14:49:00,63.9,24.3,30.08,West,270,5.8,-999.0,22,-99.99,,,0.00,Acu-Link.com,2013-03-06 20:49:00,
2013-03-06 15:04:00,63.7,23.0,30.08,West,270,4.2,-999.0,21,-99.99,,,0.00,Acu-Link.com,2013-03-06 21:04:00,
2013-03-06 15:19:00,64.0,23.3,30.08,WSW,247,7.8,-999.0,21,-99.99,,,0.00,Acu-Link.com,2013-03-06 21:19:00,
2013-03-06 15:35:00,63.9,26.4,30.07,WNW,292,2.7,-999.0,24,-99.99,,,0.00,Acu-Link.com,2013-03-06 21:35:00,
2013-03-06 15:50:00,63.5,27.1,30.08,WNW,292,3.7,-999.0,25,-99.99,,,0.00,Acu-Link.com,2013-03-06 21:50:00,
2013-03-06 16:05:00,63.1,27.7,30.08,WNW,292,2.7,-999.0,26,-99.99,,,0.00,Acu-Link.com,2013-03-06 22:05:00,
2013-03-06 16:20:00,63.1,27.7,30.07,West,270,5.8,-999.0,26,-99.99,,,0.00,Acu-Link.com,2013-03-06 22:20:00,
2013-03-06 16:35:00,63.3,27.8,30.07,West,270,3.7,-999.0,26,-99.99,,,0.00,Acu-Link.com,2013-03-06 22:35:00,
2013-03-06 16:51:00,62.2,26.9,30.08,West,270,3.2,-999.0,26,-99.99,,,0.00,Acu-Link.com,2013-03-06 22:51:00,
2013-03-06 17:06:00,62.6,27.2,30.08,WNW,292,3.2,-999.0,26,-99.99,,,0.00,Acu-Link.com,2013-03-06 23:06:00,
2013-03-06 17:21:00,62.8,23.4,30.08,WNW,292,4.7,-999.0,22,-99.99,,,0.00,Acu-Link.com,2013-03-06 23:21:00,
2013-03-06 17:37:00,60.8,23.8,30.08,NNE,22,2.7,-999.0,24,-99.99,,,0.00,Acu-Link.com,2013-03-06 23:37:00,
2013-03-06 17:52:00,59.7,23.8,30.08,WNW,292,1.7,-999.0,25,-99.99,,,0.00,Acu-Link.com,2013-03-06 23:52:00,
2013-03-06 18:16:00,57.7,25.7,30.09,WNW,292,3.2,-999.0,29,-99.99,,,0.00,Acu-Link.com,2013-03-07 00:16:00,
2013-03-06 18:33:00,56.7,26.4,30.10,WNW,292,2.2,-999.0,31,-99.99,,,0.00,Acu-Link.com,2013-03-07 00:33:00,
2013-03-06 18:48:00,56.1,25.9,30.11,WNW,292,2.7,-999.0,31,-99.99,,,0.00,Acu-Link.com,2013-03-07 00:48:00,
2013-03-06 19:04:00,55.4,26.0,30.11,North,0,2.2,-999.0,32,-99.99,,,0.00,Acu-Link.com,2013-03-07 01:04:00,
2013-03-06 19:19:00,54.5,27.4,30.12,WNW,292,1.1,-999.0,35,-99.99,,,0.00,Acu-Link.com,2013-03-07 01:19:00,
2013-03-06 19:34:00,53.8,26.8,30.12,West,270,2.2,-999.0,35,-99.99,,,0.00,Acu-Link.com,2013-03-07 01:34:00,
2013-03-06 19:49:00,53.2,27.6,30.13,NW,315,1.7,-999.0,37,-99.99,,,0.00,Acu-Link.com,2013-03-07 01:49:00,
2013-03-06 20:04:00,52.5,27.6,30.13,NNE,22,1.7,-999.0,38,-99.99,,,0.00,Acu-Link.com,2013-03-07 02:04:00,
2013-03-06 20:20:00,52.2,28.0,30.14,NW,315,1.7,-999.0,39,-99.99,,,0.00,Acu-Link.com,2013-03-07 02:20:00,
2013-03-06 20:35:00,51.8,28.9,30.14,NNE,22,1.7,-999.0,41,-99.99,,,0.00,Acu-Link.com,2013-03-07 02:35:00,
2013-03-06 20:50:00,51.1,29.4,30.14,NNW,337,2.2,-999.0,43,-99.99,,,0.00,Acu-Link.com,2013-03-07 02:50:00,
2013-03-06 21:05:00,50.5,30.0,30.14,ESE,112,2.2,-999.0,45,-99.99,,,0.00,Acu-Link.com,2013-03-07 03:05:00,
2013-03-06 21:20:00,50.0,30.6,30.15,North,0,3.7,-999.0,47,-99.99,,,0.00,Acu-Link.com,2013-03-07 03:20:00,
2013-03-06 21:36:00,49.6,30.2,30.14,NW,315,1.7,-999.0,47,-99.99,,,0.00,Acu-Link.com,2013-03-07 03:36:00,
2013-03-06 21:51:00,48.7,30.4,30.15,WNW,292,0.0,-999.0,49,-99.99,,,0.00,Acu-Link.com,2013-03-07 03:51:00,
2013-03-06 22:06:00,48.2,30.4,30.14,NNW,337,1.1,-999.0,50,-99.99,,,0.00,Acu-Link.com,2013-03-07 04:06:00,
2013-03-06 22:21:00,47.5,30.8,30.14,ENE,67,0.0,-999.0,52,-99.99,,,0.00,Acu-Link.com,2013-03-07 04:21:00,
2013-03-06 22:36:00,46.8,30.6,30.14,ENE,67,0.0,-999.0,53,-99.99,,,0.00,Acu-Link.com,2013-03-07 04:36:00,
2013-03-06 22:52:00,46.0,30.7,30.14,North,0,1.7,-999.0,55,-99.99,,,0.00,Acu-Link.com,2013-03-07 04:52:00,
2013-03-06 23:07:00,45.9,30.7,30.14,NNE,22,0.0,-999.0,55,-99.99,,,0.00,Acu-Link.com,2013-03-07 05:07:00,
2013-03-06 23:22:00,45.5,30.7,30.15,East,90,0.0,-999.0,56,-99.99,,,0.00,Acu-Link.com,2013-03-07 05:22:00,
2013-03-06 23:37:00,45.0,30.7,30.14,South,180,1.7,-999.0,57,-99.99,,,0.00,Acu-Link.com,2013-03-07 05:37:00,
2013-03-06 23:53:00,44.6,30.7,30.14,ENE,67,0.0,-999.0,58,-99.99,,,0.00,Acu-Link.com,2013-03-07 05:53:00,